Andrew Morris

Scout - Orlando City
5 Dez 2027
Sonntag
Verarbeitung

Persönlichkeit

Anpassungsfähigkeit (4) Ehrgeiz (12) Kontroverse (16) Loyalität (6) Druck (18) Professionalität (18) Fairness (17) Temperament (8)

Profil

Trainerstil Demokratisch
Lizenz Nationale A
Entschlossenheit 7
Menschenführung 6
Motivation 5
Disziplin 12
Arbeitszufriedenheit
100%
Ermüdung
0%
Rolle Scout
Gehalt 69.6K p/W
Vertrag 14.03.2029

Leistung

Verhalten Gut
Trainingseffektivität
41%
Spielerentwicklung
20%
Verletzungsprävention
60%
Taktische Umsetzung
65%

Letzte Ereignisse

Spieler begutachtet jetzt
Nahm an einer Scouting-Besprechung teil jetzt
Nahm an einer Scouting-Besprechung teil jetzt
Spieler begutachtet jetzt
Spieler begutachtet jetzt
Spieler begutachtet 7T her
Spieler begutachtet 7T her
Spieler begutachtet 7T her

Aktuell beobachtet

129
Spieler Verein Status Fähigkeit Vertrauen Beobachtet Zuletzt beobachtet Letzte Stimme
Caleb Yirenkyi Coventry City Aktiv 135 / 139 40% 5 04.12.2027 -
Hosea Michael Remo Stars Aktiv 95 / 99 40% 3 04.12.2027 -
Josh Nichols Oldham Athletic Aktiv 115 / 122 40% 3 04.12.2027 -
Harry Amass Manchester United Aktiv 138 / 152 40% 4 02.12.2027 -
Honest Ahanor Atalanta Aktiv 142 / 144 40% 3 02.12.2027 -
Veljko Milosavljević Newcastle United Aktiv 138 / 146 40% 3 02.12.2027 -
Olaniyi Saheed Kwara United Aktiv 96 / 103 40% 4 01.12.2027 -
Josh King Charlton Athletic Aktiv 140 / 159 40% 4 01.12.2027 -
Ivan Borges Defensores Aktiv 80 / 87 40% 3 01.12.2027 -
Luca Bombino Stoke City Aktiv 111 / 107 40% 4 30.11.2027 -
Oscar Steinke Brånby Hammarby Aktiv 104 / 111 40% 3 30.11.2027 -
Esquerdinha Shrewsbury Town Aktiv 115 / 122 40% 1 30.11.2027 -
Sawyer Jura Queens Park Rangers Aktiv 90 / 94 40% 1 29.11.2027 -
Dmitry Pestryakov Spartak Moscow Aktiv 132 / 129 40% 1 29.11.2027 -
Myles Lewis-Skelly Leyton Orient Aktiv 141 / 154 40% 4 28.11.2027 -
Ronan Kpakio Grimsby Town Aktiv 113 / 132 40% 2 28.11.2027 -
Agustín Obregón River Plate Aktiv 117 / 119 40% 1 28.11.2027 -
Tom Atcheson Crewe Alexandra Aktiv 116 / 134 40% 5 27.11.2027 -
Ollie Scarles West Ham United Aktiv 135 / 148 40% 10 24.11.2027 -
Josh Acheampong Chelsea Aktiv 131 / 144 40% 4 24.11.2027 -
Lewis Miley Leicester City Aktiv 156 / 156 40% 10 23.11.2027 -
Ayyoub Bouaddi Luton Town Aktiv 136 / 142 40% 1 23.11.2027 -
Christos Mouzakitis Hull City Aktiv 138 / 137 40% 4 22.11.2027 -
Jaydee Canvot Crystal Palace Aktiv 138 / 134 40% 3 22.11.2027 -
Trey Nyoni Exeter City Aktiv 146 / 140 40% 6 21.11.2027 -
Onyeuche Ujunwa Ikorodu City Aktiv 88 / 94 40% 3 21.11.2027 -
Noahkai Banks VfL Wolfsburg Aktiv 135 / 150 40% 2 19.11.2027 -
David Damboama El-Kanemi Warriors Aktiv 81 / 84 40% 2 18.11.2027 -
Onuorah Onyedika Kun Khalifat Aktiv 78 / 87 40% 2 17.11.2027 -
Kaick New York Red Bulls Aktiv 111 / 107 40% 1 17.11.2027 -
Dennis Konney KTP Aktiv 84 / 93 40% 4 16.11.2027 -
Ayden Heaven Blackpool Aktiv 138 / 153 40% 3 12.11.2027 -
Thato Sibiya Platinum Stars Aktiv 98 / 120 40% 1 12.11.2027 -
Joe Johnson Luton Town Aktiv 110 / 113 40% 1 12.11.2027 -
Uche Jaguar Kwara United Aktiv 83 / 93 40% 2 10.11.2027 -
Felipe Obradovich Lanús Aktiv 109 / 110 40% 2 10.11.2027 -
Bade Aluko Newport County Aktiv 128 / 123 40% 2 10.11.2027 -
Matai Akinmboni Bournemouth Aktiv 99 / 117 40% 4 06.11.2027 -
Callum Olusesi Crawley Town Aktiv 126 / 129 40% 1 06.11.2027 -
Yunus Emre Konak Brentford Aktiv 130 / 136 40% 2 04.11.2027 -
Harrison Armstrong Hull City Aktiv 133 / 131 40% 4 02.11.2027 -
Stuart Hawkins Seattle Sounders Aktiv 101 / 115 40% 1 01.11.2027 -
Reggie Walsh Chelsea Aktiv 116 / 138 40% 1 01.11.2027 -
Lautaro Dufur Rentistas Aktiv 99 / 111 40% 2 31.10.2027 -
Luis Otávio FC Dallas Aktiv 113 / 113 40% 3 31.10.2027 -
Adrian Skogmar Malmo FF Aktiv 111 / 129 40% 1 30.10.2027 -
Godwin Oham Warri Wolves Aktiv 83 / 95 40% 2 25.10.2027 -
Aiden Hezarkhani Real Salt Lake Aktiv 99 / 96 40% 3 23.10.2027 -
Juan Manuel Villalba Tigre Aktiv 112 / 120 40% 2 19.10.2027 -
Matías Canedo Rampla Juniors Aktiv 94 / 92 40% 1 17.10.2027 -
Azizbek To'lqinbekov Bunyodkor Aktiv 107 / 115 40% 1 16.10.2027 -
David Chinagorom Abia Warriors Aktiv 80 / 91 40% 4 13.10.2027 -
Daniel Idoko Ikorodu City Aktiv 96 / 92 40% 2 13.10.2027 -
Mauro Carrizo Atlético Tucumán Aktiv 102 / 112 40% 1 13.10.2027 -
Matthew Litherland Wigan Athletic Aktiv 109 / 125 40% 1 11.10.2027 -
Rhys Chadwick Burton Albion Aktiv 93 / 113 40% 1 07.10.2027 -
Darius Lane Brighton Aktiv 79 / 109 40% 1 07.10.2027 -
Sheriff Amuda Shooting Stars Aktiv 82 / 91 40% 1 06.10.2027 -
Malick Yalcouyé Brighton Aktiv 129 / 129 40% 1 05.10.2027 -
Teo Rodríguez Pagano San Lorenzo Aktiv 115 / 120 40% 3 03.10.2027 -
Chibueze Oputa Rangers International Aktiv 82 / 85 40% 3 03.10.2027 -
Tyson Pearce St. Louis CITY SC Aktiv 95 / 96 40% 1 03.10.2027 -
Giovanni Leoni Bradford City Aktiv 135 / 136 40% 1 01.10.2027 -
Archie Gray Southampton Aktiv 138 / 164 40% 2 30.09.2027 -
Alexis Ríos Leones Aktiv 90 / 92 40% 1 29.09.2027 -
Riquelme Thompson-Jones Harrogate Town Aktiv 108 / 127 40% 1 29.09.2027 -
Law McCabe Middlesbrough Aktiv 118 / 124 40% 1 28.09.2027 -
Joel Ezra Enyimba Aktiv 91 / 102 40% 1 26.09.2027 -
Ignacio Fernández Boston River Aktiv 88 / 103 40% 2 23.09.2027 -
Tiago Gordillo San Miguel Aktiv 80 / 90 40% 1 18.09.2027 -
Gideon Manaseh Ikorodu City Aktiv 85 / 98 40% 1 15.09.2027 -
Issa Yusuf Shooting Stars Aktiv 95 / 93 40% 2 13.09.2027 -
Zach Abbott Nottingham Forest Aktiv 108 / 118 40% 1 10.09.2027 -
Yury Oyarzo Racing Aktiv 93 / 99 40% 1 06.09.2027 -
Sam Bell Bristol City Aktiv 131 / 117 40% 3 28.07.2027 -
Rumarn Burrell Queens Park Rangers Verloren 124 / 131 40% 5 28.07.2027 -
Malik Mothersille Stockport County Aktiv 125 / 125 40% 1 28.07.2027 -
Emmanuel Ndubueze Shooting Stars Aktiv 78 / 92 40% 1 21.07.2027 -
Denis Bouanga Los Angeles Football Club Verloren 138 / 139 65% 1 08.07.2027 -
Abu Kamara Portsmouth Aktiv 112 / 128 40% 2 07.07.2027 -
Rodrigo Muniz Fulham Aktiv 137 / 147 40% 2 07.07.2027 -
George Hirst Stoke City Aktiv 132 / 131 40% 3 05.07.2027 -
Jovon Makama Norwich City Aktiv 113 / 135 40% 2 05.07.2027 -
Sam Greenwood Bristol City Aktiv 133 / 128 40% 3 05.07.2027 -
Will Lankshear Middlesbrough Aktiv 130 / 133 40% 5 04.07.2027 -
Iwan Morgan Grimsby Town Aktiv 124 / 122 40% 4 04.07.2027 -
Lorenzo Colombo Genoa Aktiv 145 / 131 40% 1 04.07.2027 -
Mathias Jørgensen Blackburn Rovers Aktiv 116 / 114 40% 2 03.07.2027 -
Jay Stansfield Birmingham Aktiv 125 / 133 40% 1 03.07.2027 -
Taty Castellanos West Ham United Aktiv 154 / 145 40% 1 30.06.2027 -
Christian Saydee Wigan Athletic Aktiv 117 / 125 40% 1 30.06.2027 -
Patrick Agyemang Derby County Aktiv 130 / 121 40% 3 27.06.2027 -
Tyrese Campbell Sheffield United Aktiv 131 / 132 40% 4 26.06.2027 -
Patson Daka Leicester City Aktiv 134 / 127 40% 5 26.06.2027 -
Elijah Adebayo Luton Town Aktiv 134 / 134 40% 1 26.06.2027 -
Tyreece Campbell Charlton Athletic Aktiv 118 / 119 40% 3 22.06.2027 -
Pablo Felipe West Ham United Aktiv 127 / 140 40% 1 21.06.2027 -
Tammer Kumar West Bromwich Albion Aktiv 107 / 116 40% 4 20.06.2027 -
Cameron Archer Southampton Aktiv 123 / 120 40% 4 20.06.2027 -
Adam Armstrong Wolverhampton Aktiv 118 / 137 40% 2 20.06.2027 -
Callum O'Hare Sheffield United Aktiv 130 / 139 40% 2 18.06.2027 -
Kyle Joseph Middlesbrough Aktiv 134 / 131 40% 1 18.06.2027 -
Petar Musa Norwich City Aktiv 143 / 139 40% 2 16.06.2027 -
Zakaria Aboukhlal Torino Aktiv 131 / 139 40% 1 09.06.2027 -
Aidomo Emakhu Oxford United Aktiv 117 / 122 40% 1 09.06.2027 -
John Yeboah Venezia Aktiv 114 / 109 40% 1 07.06.2027 -
Andri Guðjohnsen Blackburn Rovers Aktiv 116 / 122 40% 1 04.06.2027 -
Evidence Makgopa Orlando Pirates Aktiv 103 / 117 40% 1 04.06.2027 -
Aune Heggebø West Bromwich Albion Aktiv 127 / 133 40% 3 01.06.2027 -
Richard Koné Queens Park Rangers Aktiv 127 / 127 40% 3 01.06.2027 -
Marcus Forss Bristol Rovers Aktiv 129 / 112 40% 1 31.05.2027 -
Sidiki Chérif Coventry City Aktiv 118 / 127 40% 1 30.05.2027 -
Callum Lang Preston Aktiv 116 / 113 40% 1 29.05.2027 -
Tom Cannon Sheffield United Aktiv 141 / 136 40% 1 29.05.2027 -
Aaron Collins Milton Keynes Dons Aktiv 132 / 116 40% 1 28.05.2027 -
Kyle Wootton Stockport County Aktiv 122 / 118 40% 3 24.05.2027 -
Zian Flemming Ipswich Town Aktiv 130 / 132 40% 2 22.05.2027 -
Yousef Salech Cardiff City Aktiv 122 / 135 40% 4 19.05.2027 -
Oli McBurnie Hull City Aktiv 137 / 125 40% 2 19.05.2027 -
Sindre Walle Egeli Ipswich Town Aktiv 134 / 135 40% 1 14.05.2027 -
Žan Vipotnik Swansea City Aktiv 124 / 128 40% 2 12.05.2027 -
Dwight McNeil Crystal Palace Aktiv 139 / 149 40% 1 11.05.2027 -
Eddie Nketiah Crystal Palace Aktiv 149 / 141 40% 1 07.05.2027 -
Efraín Álvarez Udinese Aktiv 139 / 136 40% 1 04.05.2027 -
Ronan Hale Gillingham Aktiv 112 / 109 40% 1 03.05.2027 -
Davis Keillor-Dunn Wrexham Aktiv 105 / 110 40% 1 22.04.2027 -
Jake Batty Peterborough United Aktiv 112 / 104 40% 1 13.02.2027 Mehr Infos nötig
Cemran Dansin Orlando Pirates Aktiv 114 / 112 40% 1 13.02.2027 -
Leonardo Sosa Rosario Central Aktiv 80 / 90 40% 1 01.08.2026 -